Time;durP1;ratioP1;P1;durP2;ratioP2;P2;SDS_P1;SDS_P2;PMS_P1;PMS_P2;Temp;Humidity;BMP_temperature;BMP_pressure;BME280_temperature;BME280_humidity;BME280_pressure;Samples;Min_cycle;Max_cycle;Signal;HPM_P1;HPM_P2
2021/08/27 00:02:15;;;;;;;4.75;4.35;;;;;;;15.47;72.80;95311.06;5033119;28;20203;-82
2021/08/27 00:04:42;;;;;;;8.80;4.65;;;;;;;15.49;73.18;95320.22;5032366;28;20202;-82
2021/08/27 00:07:08;;;;;;;4.97;4.47;;;;;;;15.45;73.48;95334.63;5026041;28;20226;-84
2021/08/27 00:09:35;;;;;;;5.47;4.63;;;;;;;15.45;73.49;95319.06;5013014;28;20202;-84
2021/08/27 00:12:02;;;;;;;5.45;4.90;;;;;;;15.43;73.41;95320.28;5017425;28;20202;-83
2021/08/27 00:14:28;;;;;;;5.53;4.70;;;;;;;15.46;73.22;95323.25;5032751;28;20222;-84
2021/08/27 00:16:56;;;;;;;5.20;4.13;;;;;;;15.47;73.73;95318.84;5032448;28;20762;-84
2021/08/27 00:19:23;;;;;;;4.97;4.10;;;;;;;15.53;73.31;95323.19;5032482;28;20202;-85
2021/08/27 00:21:49;;;;;;;4.83;4.30;;;;;;;15.54;73.35;95311.81;5032383;28;20209;-82
2021/08/27 00:24:16;;;;;;;5.70;4.60;;;;;;;15.57;73.24;95316.59;5032476;28;20205;-83
2021/08/27 00:26:42;;;;;;;5.55;4.50;;;;;;;15.52;73.67;95312.03;5032371;28;20233;-83
2021/08/27 00:29:09;;;;;;;6.43;4.20;;;;;;;15.52;73.59;95309.44;5032648;28;20214;-81
2021/08/27 00:31:35;;;;;;;5.07;4.50;;;;;;;15.51;73.53;95307.84;5032455;28;20202;-84
2021/08/27 00:34:03;;;;;;;5.63;4.65;;;;;;;15.51;73.63;95305.25;5031357;28;20230;-82
2021/08/27 00:36:30;;;;;;;5.57;4.43;;;;;;;15.48;73.76;95297.88;5014954;28;20221;-83
2021/08/27 00:38:56;;;;;;;5.57;4.27;;;;;;;15.48;73.95;95302.28;5012587;28;20210;-84
2021/08/27 00:41:22;;;;;;;5.05;4.50;;;;;;;15.44;73.79;95309.69;5012498;28;20214;-85
2021/08/27 00:43:49;;;;;;;6.07;4.60;;;;;;;15.42;74.04;95311.69;5012150;28;20206;-83
2021/08/27 00:46:16;;;;;;;4.70;4.17;;;;;;;15.46;73.62;95315.47;5012629;28;20625;-85
2021/08/27 00:48:42;;;;;;;5.53;4.47;;;;;;;15.46;73.73;95310.28;5012450;28;20202;-85
2021/08/27 00:51:11;;;;;;;5.17;4.40;;;;;;;15.46;73.94;95306.88;5012487;28;20207;-85
2021/08/27 00:53:37;;;;;;;6.13;4.90;;;;;;;15.43;73.98;95302.91;5011649;28;20472;-86
2021/08/27 00:56:05;;;;;;;5.10;4.40;;;;;;;15.44;73.70;95309.69;5012128;28;20270;-81
2021/08/27 00:58:31;;;;;;;5.00;4.40;;;;;;;15.46;73.74;95304.28;5012354;28;20207;-84
2021/08/27 01:00:58;;;;;;;6.53;4.53;;;;;;;15.40;75.06;95316.31;5022557;28;20202;-82
2021/08/27 01:03:25;;;;;;;5.30;4.80;;;;;;;15.44;74.31;95306.28;5031747;28;20206;-83
2021/08/27 01:06:04;;;;;;;5.10;4.60;;;;;;;15.42;74.38;95305.72;5030580;28;20748;-82
2021/08/27 01:08:38;;;;;;;5.47;4.97;;;;;;;15.43;74.21;95313.28;5032079;28;20205;-84
2021/08/27 01:11:12;;;;;;;6.33;5.07;;;;;;;15.40;74.80;95308.50;5031752;28;20246;-81
2021/08/27 01:13:45;;;;;;;5.80;4.67;;;;;;;15.38;74.70;95312.34;5031355;28;20197;-82
2021/08/27 01:16:16;;;;;;;5.03;4.53;;;;;;;15.32;75.18;95321.78;5031007;28;20238;-85
2021/08/27 01:18:47;;;;;;;6.27;5.43;;;;;;;15.29;75.33;95324.00;5031185;28;20228;-83
2021/08/27 01:21:31;;;;;;;5.37;4.87;;;;;;;15.22;75.95;95329.22;5031366;28;20201;-82
2021/08/27 01:24:01;;;;;;;5.27;4.77;;;;;;;15.24;75.31;95327.22;5030824;28;20206;-81
2021/08/27 01:26:36;;;;;;;5.73;4.70;;;;;;;15.25;75.88;95323.63;5031665;28;20229;-84
2021/08/27 01:29:04;;;;;;;5.27;4.30;;;;;;;15.23;76.05;95324.81;5018236;28;20226;-82
2021/08/27 01:31:36;;;;;;;5.53;4.93;;;;;;;15.18;76.05;95325.47;5011912;28;20203;-83
2021/08/27 01:34:34;;;;;;;6.83;4.93;;;;;;;15.26;75.75;95330.38;5011921;28;20227;-81
2021/08/27 01:37:01;;;;;;;6.30;4.60;;;;;;;15.27;75.63;95336.38;5007291;28;20238;-82
2021/08/27 01:39:32;;;;;;;5.13;4.50;;;;;;;15.27;75.70;95331.97;5011344;28;20206;-83
2021/08/27 01:42:00;;;;;;;4.70;4.20;;;;;;;15.16;76.13;95322.31;5011841;28;20690;-82
2021/08/27 01:44:28;;;;;;;4.97;4.40;;;;;;;15.15;76.57;95328.50;5011368;28;20205;-81
2021/08/27 01:46:58;;;;;;;5.20;4.27;;;;;;;15.25;75.82;95325.41;5012009;28;20214;-84
2021/08/27 01:49:28;;;;;;;6.13;4.33;;;;;;;15.20;76.18;95337.22;5011393;28;20210;-86
2021/08/27 01:51:57;;;;;;;6.13;4.63;;;;;;;15.17;76.86;95331.66;5011500;28;20218;-84
2021/08/27 01:54:25;;;;;;;4.87;4.37;;;;;;;15.19;76.85;95338.25;5011441;28;20226;-85
2021/08/27 01:56:52;;;;;;;6.80;4.40;;;;;;;15.21;76.72;95336.19;5019348;28;20221;-84
2021/08/27 01:59:20;;;;;;;6.30;4.80;;;;;;;15.20;79.51;95345.00;5031228;28;20206;-85
2021/08/27 02:01:47;;;;;;;5.83;4.60;;;;;;;15.13;79.20;95341.66;5031260;28;20202;-82
2021/08/27 02:04:17;;;;;;;7.03;4.80;;;;;;;15.08;80.93;95344.09;5030446;28;20194;-82
2021/08/27 02:06:44;;;;;;;5.47;4.73;;;;;;;15.09;80.41;95340.50;5012225;28;20246;-82
2021/08/27 02:09:13;;;;;;;7.07;5.00;;;;;;;15.08;82.34;95349.28;5011559;28;20210;-84
2021/08/27 02:11:40;;;;;;;5.50;4.57;;;;;;;15.09;81.99;95350.88;5025573;28;20244;-86
2021/08/27 02:14:08;;;;;;;5.20;4.67;;;;;;;15.09;83.10;95347.47;5030688;28;20209;-84
2021/08/27 02:16:35;;;;;;;6.10;4.37;;;;;;;15.09;83.02;95356.06;5033170;28;20578;-81
2021/08/27 02:19:02;;;;;;;7.83;5.10;;;;;;;15.12;82.72;95352.25;5034987;28;20217;-85
2021/08/27 02:21:35;;;;;;;6.67;4.80;;;;;;;15.08;83.84;95351.06;5034731;28;20206;-84
2021/08/27 02:24:06;;;;;;;5.40;4.90;;;;;;;15.03;85.09;95349.09;5034935;28;20229;-83
2021/08/27 02:26:36;;;;;;;7.27;5.20;;;;;;;15.06;84.50;95351.28;5035427;28;20636;-83
2021/08/27 02:29:04;;;;;;;5.87;5.27;;;;;;;15.04;85.76;95353.28;5034261;28;20206;-84
2021/08/27 02:31:32;;;;;;;6.33;5.23;;;;;;;15.06;85.02;95350.47;5034382;28;20228;-84
2021/08/27 02:34:00;;;;;;;7.47;4.93;;;;;;;15.12;84.83;95354.84;5034641;28;20218;-82
2021/08/27 02:36:28;;;;;;;6.13;5.20;;;;;;;15.16;84.61;95350.81;5018074;28;20218;-82
2021/08/27 02:38:56;;;;;;;6.77;5.80;;;;;;;15.12;85.20;95347.06;5014538;28;20202;-82
2021/08/27 02:41:23;;;;;;;6.23;5.53;;;;;;;15.17;84.02;95350.63;5014978;28;20318;-84
2021/08/27 02:43:51;;;;;;;7.27;6.00;;;;;;;15.13;84.56;95351.25;5014336;28;20207;-82
2021/08/27 02:46:18;;;;;;;6.47;5.87;;;;;;;15.11;85.47;95354.03;5014575;28;20219;-84
2021/08/27 02:48:50;;;;;;;6.90;5.97;;;;;;;15.12;84.74;95353.03;5014319;28;20599;-80
2021/08/27 02:51:24;;;;;;;7.33;5.83;;;;;;;15.09;85.10;95343.09;5014219;28;20202;-86
2021/08/27 02:53:54;;;;;;;7.97;6.33;;;;;;;15.13;84.55;95346.06;5013653;28;20240;-86
2021/08/27 02:56:25;;;;;;;8.27;6.60;;;;;;;15.14;84.62;95350.25;5018006;28;20230;-85
2021/08/27 02:58:54;;;;;;;7.97;6.50;;;;;;;15.05;87.03;95348.88;5033999;28;20209;-84
2021/08/27 03:01:35;;;;;;;7.27;6.57;;;;;;;15.04;85.93;95347.31;5034278;28;20689;-84
2021/08/27 03:04:06;;;;;;;7.97;6.23;;;;;;;14.98;87.20;95342.97;5033867;28;20206;-83
2021/08/27 03:06:40;;;;;;;8.13;6.70;;;;;;;14.97;87.57;95337.00;5033642;28;20226;-82
2021/08/27 03:09:09;;;;;;;8.83;6.73;;;;;;;14.97;86.94;95339.59;5033607;28;20206;-84
2021/08/27 03:11:41;;;;;;;6.70;5.80;;;;;;;14.99;87.46;95339.38;5033861;28;20260;-85
2021/08/27 03:14:13;;;;;;;6.83;6.13;;;;;;;15.02;87.41;95331.94;5033741;28;20217;-83
2021/08/27 03:16:44;;;;;;;8.27;6.63;;;;;;;15.05;86.39;95339.31;5034479;28;20229;-83
2021/08/27 03:19:19;;;;;;;7.07;6.37;;;;;;;15.05;86.35;95331.53;5034066;28;20209;-81
2021/08/27 03:21:48;;;;;;;7.77;6.23;;;;;;;15.02;88.54;95333.75;5034026;28;20201;-84
2021/08/27 03:24:18;;;;;;;7.10;6.40;;;;;;;15.07;87.21;95331.34;5033274;28;20690;-82
2021/08/27 03:26:47;;;;;;;8.13;6.70;;;;;;;15.02;87.40;95328.56;5033136;28;20233;-81
2021/08/27 03:29:20;;;;;;;7.13;6.40;;;;;;;14.97;87.27;95326.63;5032981;28;20206;-84
2021/08/27 03:31:46;;;;;;;7.93;6.23;;;;;;;14.90;88.44;95327.66;5033820;28;20579;-84
2021/08/27 03:34:13;;;;;;;7.57;6.10;;;;;;;14.93;88.58;95327.25;5032244;28;20216;-84
2021/08/27 03:36:46;;;;;;;8.77;6.50;;;;;;;14.92;88.75;95328.25;5033709;28;20222;-84
2021/08/27 03:39:13;;;;;;;8.23;6.40;;;;;;;14.92;88.65;95325.66;5034660;28;20229;-86
2021/08/27 03:41:42;;;;;;;6.73;6.03;;;;;;;14.88;90.19;95321.88;5033683;28;20206;-82
2021/08/27 03:44:10;;;;;;;8.63;6.50;;;;;;;14.94;88.37;95334.03;5033513;28;20554;-82
2021/08/27 03:46:38;;;;;;;7.03;6.23;;;;;;;14.96;88.41;95332.81;5033206;28;20221;-82
2021/08/27 03:49:05;;;;;;;7.10;6.27;;;;;;;14.92;90.49;95326.44;5033265;28;20553;-83
2021/08/27 03:51:32;;;;;;;8.17;6.73;;;;;;;14.93;89.78;95337.63;5035463;28;20205;-82
2021/08/27 03:53:59;;;;;;;8.63;6.60;;;;;;;14.81;91.83;95337.50;5023644;28;20230;-85
2021/08/27 03:56:27;;;;;;;7.83;6.40;;;;;;;14.88;91.50;95343.41;5028567;28;20877;-87
2021/08/27 03:58:56;;;;;;;7.00;6.30;;;;;;;14.95;89.98;95349.38;5032802;28;20713;-86
2021/08/27 04:01:23;;;;;;;9.13;6.53;;;;;;;14.81;92.67;95345.28;5032893;28;20202;-85
2021/08/27 04:03:51;;;;;;;8.97;6.80;;;;;;;14.79;91.45;95342.09;5032530;28;20208;-85
2021/08/27 04:06:18;;;;;;;6.50;5.80;;;;;;;14.78;91.71;95354.25;5033031;28;20218;-85
2021/08/27 04:08:45;;;;;;;6.10;5.50;;;;;;;14.78;90.96;95348.28;5032544;28;20229;-86
2021/08/27 04:11:14;;;;;;;7.77;5.60;;;;;;;14.75;90.50;95344.31;5032458;28;20194;-85
2021/08/27 04:13:41;;;;;;;7.27;5.60;;;;;;;14.71;90.76;95350.09;5032447;28;20197;-83
2021/08/27 04:16:08;;;;;;;5.23;4.73;;;;;;;14.62;92.59;95359.94;5033287;28;20631;-87
2021/08/27 04:18:34;;;;;;;4.77;4.00;;;;;;;14.60;92.46;95363.72;5033081;28;20194;-86
2021/08/27 04:21:02;;;;;;;4.53;3.70;;;;;;;14.66;89.47;95365.47;5033140;28;20198;-85
2021/08/27 04:23:29;;;;;;;4.40;3.30;;;;;;;14.69;89.24;95362.47;5032888;28;20202;-84
2021/08/27 04:25:56;;;;;;;4.10;3.40;;;;;;;14.63;90.01;95361.50;5032621;28;20214;-87
2021/08/27 04:28:22;;;;;;;3.70;3.30;;;;;;;14.65;88.68;95359.50;5032433;28;20293;-86
2021/08/27 04:30:49;;;;;;;5.37;3.40;;;;;;;14.66;88.53;95360.28;5032577;28;20564;-86
2021/08/27 04:33:16;;;;;;;4.00;3.00;;;;;;;14.61;88.00;95360.13;5032111;28;20206;-83
2021/08/27 04:35:42;;;;;;;4.50;2.80;;;;;;;14.61;88.25;95360.94;5028527;28;20222;-84
2021/08/27 04:38:10;;;;;;;3.87;3.30;;;;;;;14.61;88.28;95360.13;5012842;28;20198;-86
2021/08/27 04:40:36;;;;;;;4.80;3.00;;;;;;;14.67;87.54;95359.28;5012511;28;20207;-87
2021/08/27 04:43:03;;;;;;;7.23;6.50;;;;;;;14.68;87.42;95361.66;5012671;28;20601;-84
2021/08/27 04:45:32;;;;;;;15.03;13.57;;;;;;;14.71;87.61;95357.88;5026106;28;20202;-85
2021/08/27 04:47:59;;;;;;;5.00;4.50;;;;;;;14.75;87.73;95361.66;5026776;28;20205;-86
2021/08/27 04:50:25;;;;;;;3.70;3.37;;;;;;;14.76;86.59;95363.25;5043540;28;20191;-84
2021/08/27 04:52:52;;;;;;;6.40;3.73;;;;;;;14.71;88.31;95356.06;5029739;28;20246;-82
2021/08/27 04:55:20;;;;;;;4.63;4.00;;;;;;;14.68;89.60;95358.28;5049956;28;20244;-82
2021/08/27 04:57:46;;;;;;;3.50;3.17;;;;;;;14.65;87.73;95362.06;5038121;28;20221;-83
2021/08/27 05:00:13;;;;;;;3.33;3.00;;;;;;;14.62;89.09;95352.16;5020498;28;20206;-86
2021/08/27 05:02:40;;;;;;;4.93;3.20;;;;;;;14.62;88.76;95356.53;5032950;28;21685;-87
2021/08/27 05:05:08;;;;;;;4.23;2.80;;;;;;;14.57;91.41;95361.53;5026091;28;20314;-86
2021/08/27 05:07:35;;;;;;;4.67;2.47;;;;;;;14.60;89.19;95351.56;5022739;28;20233;-85
2021/08/27 05:10:01;;;;;;;3.47;3.00;;;;;;;14.61;89.56;95347.97;5043947;28;20686;-86
2021/08/27 05:12:30;;;;;;;3.90;2.93;;;;;;;14.65;89.40;95361.28;5026295;28;20198;-85
2021/08/27 05:14:57;;;;;;;3.50;3.20;;;;;;;14.67;88.69;95356.69;5037150;28;20277;-83
2021/08/27 05:17:23;;;;;;;3.50;3.03;;;;;;;14.66;88.35;95355.91;5017730;28;20222;-83
2021/08/27 05:19:50;;;;;;;3.80;3.10;;;;;;;14.70;88.06;95359.66;5013068;28;20194;-83
2021/08/27 05:22:17;;;;;;;4.17;3.00;;;;;;;14.67;88.59;95365.25;5011783;28;20670;-81
2021/08/27 05:24:44;;;;;;;4.23;3.37;;;;;;;14.60;90.47;95361.94;5032970;28;20849;-82
2021/08/27 05:27:10;;;;;;;5.93;5.33;;;;;;;14.65;89.11;95372.44;5035279;28;20213;-82
2021/08/27 05:29:38;;;;;;;14.30;12.77;;;;;;;14.63;90.85;95373.66;5033930;28;20194;-86
2021/08/27 05:32:06;;;;;;;6.90;6.20;;;;;;;14.67;89.55;95374.84;5042208;28;20203;-84
2021/08/27 05:34:32;;;;;;;25.10;22.37;;;;;;;14.64;90.91;95380.41;5024724;28;20205;-85
2021/08/27 05:36:59;;;;;;;10.20;9.17;;;;;;;14.60;91.70;95379.25;5048575;28;20297;-86
2021/08/27 05:39:27;;;;;;;7.17;6.33;;;;;;;14.64;90.83;95383.00;5030072;28;20206;-86
2021/08/27 05:41:54;;;;;;;8.07;7.13;;;;;;;14.61;91.09;95383.44;5030089;28;20226;-86
2021/08/27 05:44:21;;;;;;;8.97;7.27;;;;;;;14.58;92.34;95387.25;5030836;28;20205;-83
2021/08/27 05:46:48;;;;;;;6.33;5.73;;;;;;;14.59;91.22;95383.66;5042509;28;20221;-86
2021/08/27 05:49:15;;;;;;;8.87;6.20;;;;;;;14.56;92.45;95381.47;5042376;28;20202;-84
2021/08/27 05:51:42;;;;;;;8.50;6.13;;;;;;;14.54;92.73;95393.84;5048994;28;20209;-84
2021/08/27 05:54:09;;;;;;;6.70;5.70;;;;;;;14.52;92.90;95398.41;5050216;28;20229;-86
2021/08/27 05:56:35;;;;;;;6.57;5.87;;;;;;;14.55;92.90;95400.59;5048526;28;20229;-86
2021/08/27 05:59:02;;;;;;;6.53;5.90;;;;;;;14.59;92.30;95403.59;5014436;28;20590;-85
2021/08/27 06:01:29;;;;;;;6.97;6.17;;;;;;;14.59;92.22;95401.78;5025772;28;20677;-81
2021/08/27 06:03:57;;;;;;;7.57;6.47;;;;;;;14.66;91.94;95404.34;5032387;28;20289;-84
2021/08/27 06:06:23;;;;;;;15.23;13.60;;;;;;;14.69;91.23;95396.94;5030714;28;20273;-86
2021/08/27 06:08:50;;;;;;;13.73;11.17;;;;;;;14.69;91.63;95403.94;5009790;28;20206;-85
2021/08/27 06:11:16;;;;;;;10.97;7.30;;;;;;;14.72;91.33;95393.16;5009273;28;20212;-85
2021/08/27 06:13:43;;;;;;;9.53;6.47;;;;;;;14.70;91.87;95393.34;5027452;28;20251;-84
2021/08/27 06:16:09;;;;;;;7.93;6.53;;;;;;;14.77;90.82;95395.94;5028006;28;20246;-84
2021/08/27 06:18:36;;;;;;;7.83;6.70;;;;;;;14.77;90.47;95401.91;5028515;28;20213;-81
2021/08/27 06:21:04;;;;;;;8.90;6.73;;;;;;;14.67;92.25;95401.53;5011521;28;20226;-84
2021/08/27 06:23:30;;;;;;;7.43;6.60;;;;;;;14.71;91.50;95410.50;5008848;28;20203;-84
2021/08/27 06:25:57;;;;;;;7.93;6.40;;;;;;;14.72;91.22;95411.28;5025006;28;20870;-84
2021/08/27 06:28:23;;;;;;;6.97;6.27;;;;;;;14.68;90.39;95418.69;5028918;28;20230;-85
2021/08/27 06:30:50;;;;;;;8.27;6.00;;;;;;;14.69;90.40;95414.28;5030177;28;20684;-84
2021/08/27 06:33:16;;;;;;;6.23;5.63;;;;;;;14.71;90.97;95413.09;5044575;28;20237;-87
2021/08/27 06:35:43;;;;;;;5.60;5.07;;;;;;;14.73;90.37;95420.66;5010190;28;20238;-83
2021/08/27 06:38:22;;;;;;;7.77;5.50;;;;;;;14.70;89.83;95421.88;5008210;28;20207;-84
2021/08/27 06:40:52;;;;;;;6.93;5.60;;;;;;;14.76;90.23;95425.44;5008583;28;20203;-85
2021/08/27 06:43:18;;;;;;;6.67;5.23;;;;;;;14.80;89.39;95417.06;5008725;28;20195;-84
2021/08/27 06:45:45;;;;;;;5.47;4.90;;;;;;;14.79;90.79;95417.25;5021446;28;20257;-82
2021/08/27 06:48:11;;;;;;;6.00;5.40;;;;;;;14.81;91.42;95417.84;5041107;28;20198;-83
2021/08/27 06:50:38;;;;;;;9.13;5.00;;;;;;;14.84;90.41;95420.81;5028651;28;20205;-82
2021/08/27 06:53:06;;;;;;;5.43;4.93;;;;;;;14.92;90.24;95431.94;5029200;28;20283;-83
2021/08/27 06:55:34;;;;;;;5.13;4.40;;;;;;;14.95;90.17;95429.75;5048137;28;20205;-82
2021/08/27 06:58:01;;;;;;;6.33;4.77;;;;;;;14.94;89.58;95425.56;5048372;28;20201;-85
2021/08/27 07:00:28;;;;;;;19.57;17.37;;;;;;;14.95;91.53;95423.75;5041609;28;20252;-83
2021/08/27 07:02:55;;;;;;;6.47;5.87;;;;;;;14.85;91.72;95430.16;5028437;28;20210;-82
2021/08/27 07:05:21;;;;;;;7.63;4.57;;;;;;;14.95;90.99;95427.16;5033920;28;20208;-83
2021/08/27 07:07:50;;;;;;;6.13;4.87;;;;;;;14.90;92.49;95433.94;5012554;28;20219;-81
2021/08/27 07:10:17;;;;;;;5.37;4.87;;;;;;;15.02;91.17;95433.06;5012868;28;20210;-82
2021/08/27 07:12:46;;;;;;;6.47;4.80;;;;;;;15.09;91.08;95435.63;5026242;28;20202;-82
2021/08/27 07:15:14;;;;;;;7.85;4.78;;;;;;;15.30;90.76;95435.31;5032105;28;20236;-83
2021/08/27 07:17:40;;;;;;;6.00;4.53;;;;;;;15.46;88.95;95440.00;5043510;28;20798;-82
2021/08/27 07:20:08;;;;;;;16.53;11.30;;;;;;;15.52;89.86;95438.38;5052746;28;20699;-83
2021/08/27 07:22:34;;;;;;;6.77;5.47;;;;;;;15.63;88.92;95444.69;5031726;28;20245;-87
2021/08/27 07:25:01;;;;;;;5.97;4.80;;;;;;;15.61;88.04;95450.09;5032776;28;20198;-85
2021/08/27 07:27:27;;;;;;;6.28;5.35;;;;;;;15.44;87.66;95443.81;5031363;28;20230;-87
2021/08/27 07:29:55;;;;;;;5.77;4.97;;;;;;;15.41;86.79;95441.63;5012344;28;20199;-86
2021/08/27 07:32:21;;;;;;;4.93;4.50;;;;;;;15.48;88.13;95447.56;5012740;28;20203;-86
2021/08/27 07:34:48;;;;;;;5.93;4.70;;;;;;;15.57;87.22;95443.78;5028155;28;20570;-87
2021/08/27 07:37:15;;;;;;;5.17;4.20;;;;;;;15.59;86.98;95440.97;5032340;28;20669;-86
2021/08/27 07:39:41;;;;;;;5.03;4.20;;;;;;;15.51;87.21;95439.38;5032708;28;20297;-83
2021/08/27 07:42:09;;;;;;;4.60;4.13;;;;;;;15.42;86.51;95441.41;5034855;28;20801;-84
2021/08/27 07:44:36;;;;;;;4.83;3.73;;;;;;;15.33;85.72;95440.09;5025915;28;20212;-81
2021/08/27 07:47:05;;;;;;;5.73;3.80;;;;;;;15.33;85.43;95440.09;5026889;28;20215;-82
2021/08/27 07:49:31;;;;;;;4.63;3.87;;;;;;;15.36;87.40;95449.25;5033025;28;20190;-82
2021/08/27 07:51:58;;;;;;;5.43;3.83;;;;;;;15.42;87.18;95466.56;5031924;28;20199;-83
2021/08/27 07:54:25;;;;;;;4.23;3.83;;;;;;;15.48;86.26;95461.34;5017880;28;20199;-84
2021/08/27 07:56:52;;;;;;;20.53;17.83;;;;;;;15.53;85.95;95460.72;5024453;28;20257;-83
2021/08/27 07:59:18;;;;;;;15.00;13.37;;;;;;;15.72;85.69;95456.44;5012472;28;20215;-83
2021/08/27 08:01:44;;;;;;;5.67;5.03;;;;;;;15.66;88.31;95462.44;5029243;28;20210;-84
2021/08/27 08:04:13;;;;;;;7.03;4.70;;;;;;;15.59;90.36;95457.31;5031666;28;20234;-81
2021/08/27 08:06:39;;;;;;;4.80;4.30;;;;;;;15.61;89.03;95452.69;5031979;28;20844;-82
2021/08/27 08:09:07;;;;;;;5.83;3.70;;;;;;;15.65;87.89;95458.25;5027859;28;20693;-85
2021/08/27 08:11:34;;;;;;;6.23;3.70;;;;;;;15.59;85.41;95459.91;5014373;28;20206;-84
2021/08/27 08:14:00;;;;;;;3.93;3.60;;;;;;;15.62;85.69;95462.06;5031704;28;20682;-83
2021/08/27 08:16:27;;;;;;;4.50;3.60;;;;;;;15.56;87.32;95464.75;5032086;28;20234;-83
2021/08/27 08:18:54;;;;;;;3.73;3.40;;;;;;;15.51;87.06;95468.72;5028060;28;20198;-83
2021/08/27 08:21:23;;;;;;;3.67;3.30;;;;;;;15.53;87.11;95469.31;5031972;28;20206;-82
2021/08/27 08:23:50;;;;;;;3.63;3.20;;;;;;;15.53;87.79;95465.91;5031571;28;20666;-83
2021/08/27 08:26:17;;;;;;;4.10;3.57;;;;;;;15.59;87.14;95472.88;5032058;28;20221;-82
2021/08/27 08:28:44;;;;;;;4.53;3.40;;;;;;;15.65;86.59;95472.03;5032559;28;20575;-83
2021/08/27 08:31:16;;;;;;;19.13;17.07;;;;;;;15.64;86.08;95478.22;5045099;28;20198;-82
2021/08/27 08:33:43;;;;;;;9.23;7.57;;;;;;;15.63;85.98;95476.63;5043901;28;20211;-84
2021/08/27 08:36:09;;;;;;;3.77;3.47;;;;;;;15.67;85.94;95471.84;5031421;28;20222;-84
2021/08/27 08:38:37;;;;;;;3.73;3.20;;;;;;;15.66;86.98;95484.00;5031860;28;20213;-81
2021/08/27 08:41:05;;;;;;;4.60;3.73;;;;;;;15.61;88.97;95478.66;5050172;28;20201;-86
2021/08/27 08:43:31;;;;;;;3.80;3.30;;;;;;;15.66;88.20;95480.63;5023801;28;20202;-86
2021/08/27 08:45:58;;;;;;;3.70;3.23;;;;;;;15.73;86.77;95478.78;5011863;28;20598;-86
2021/08/27 08:48:26;;;;;;;3.38;3.08;;;;;;;15.77;85.81;95474.78;5011951;28;20209;-84
2021/08/27 08:50:55;;;;;;;5.30;3.45;;;;;;;15.86;85.37;95478.69;5012236;28;20229;-84
2021/08/27 08:53:23;;;;;;;7.68;4.10;;;;;;;15.96;85.83;95475.63;5011053;28;20281;-84
2021/08/27 08:55:52;;;;;;;3.92;3.30;;;;;;;16.09;84.19;95476.31;5028607;28;20209;-86
2021/08/27 08:58:19;;;;;;;4.03;3.13;;;;;;;16.33;83.27;95485.09;5030343;28;20972;-85
2021/08/27 09:00:46;;;;;;;3.50;3.05;;;;;;;16.87;82.71;95486.94;5036117;28;20206;-86
2021/08/27 09:03:12;;;;;;;4.05;3.30;;;;;;;17.51;77.67;95480.28;5010135;28;20714;-87
2021/08/27 09:05:41;;;;;;;4.38;3.65;;;;;;;17.80;79.24;95478.72;5023014;28;20195;-85
2021/08/27 09:08:07;;;;;;;3.53;3.20;;;;;;;18.05;74.83;95473.31;5028371;28;21090;-86
2021/08/27 09:10:41;;;;;;;3.60;2.83;;;;;;;17.88;76.34;95482.81;5014156;28;20198;-84
2021/08/27 09:13:09;;;;;;;7.72;3.30;;;;;;;18.33;72.73;95466.63;5036543;28;20574;-86
2021/08/27 09:15:36;;;;;;;2.78;2.58;;;;;;;18.69;70.22;95466.38;5043068;28;20206;-86
2021/08/27 09:18:06;;;;;;;4.57;2.80;;;;;;;18.91;67.65;95466.56;5031139;28;20221;-86
2021/08/27 09:20:33;;;;;;;13.95;12.52;;;;;;;18.76;68.00;95469.66;5030706;28;20202;-87
2021/08/27 09:23:01;;;;;;;7.25;5.50;;;;;;;18.47;68.19;95468.75;5024311;28;20198;-85
2021/08/27 09:25:29;;;;;;;6.05;2.95;;;;;;;18.20;71.07;95471.06;5034292;28;20564;-85
2021/08/27 09:28:17;;;;;;;3.80;2.42;;;;;;;17.93;69.74;95469.88;5031704;28;20225;-86
2021/08/27 09:30:55;;;;;;;3.70;2.20;;;;;;;17.82;70.25;95470.69;5030756;28;20202;-86
2021/08/27 09:33:25;;;;;;;2.88;2.58;;;;;;;17.88;71.49;95475.00;5034960;28;20208;-86
2021/08/27 09:35:57;;;;;;;2.47;2.28;;;;;;;17.77;70.53;95473.94;5028410;28;20203;-85
2021/08/27 09:38:26;;;;;;;3.63;2.38;;;;;;;17.65;70.08;95473.13;5040828;28;20218;-87
2021/08/27 09:41:00;;;;;;;2.50;2.20;;;;;;;17.38;68.99;95470.06;5030618;28;20205;-86
2021/08/27 09:43:28;;;;;;;5.13;2.60;;;;;;;17.27;71.55;95471.63;5027136;28;20631;-84
2021/08/27 09:45:55;;;;;;;2.92;2.40;;;;;;;17.24;71.37;95469.47;5036956;28;20197;-85
2021/08/27 09:48:22;;;;;;;3.70;3.03;;;;;;;17.17;72.90;95478.38;5050837;28;20213;-85
2021/08/27 09:50:50;;;;;;;2.75;2.00;;;;;;;17.09;70.77;95471.66;5052054;28;20201;-87
2021/08/27 09:53:18;;;;;;;2.35;2.05;;;;;;;16.96;69.75;95471.81;5049920;28;20290;-87
2021/08/27 10:47:09;;;;;;;2.50;2.30;;;;;;;15.45;84.93;95472.13;5065338;28;20265;-88
2021/08/27 10:50:01;;;;;;;2.83;2.20;;;;;;;15.62;83.97;95479.44;4987658;28;2230363;-88
2021/08/27 10:52:41;;;;;;;2.73;2.17;;;;;;;15.89;82.36;95478.25;5068183;28;20200;-88
2021/08/27 10:55:16;;;;;;;4.53;3.27;;;;;;;15.98;79.59;95473.59;5077192;28;20275;-88
2021/08/27 10:58:15;;;;;;;3.73;3.37;;;;;;;16.08;80.66;95468.72;5070083;28;20938;-90
2021/08/27 11:00:51;;;;;;;2.50;2.30;;;;;;;16.18;81.15;95479.41;5072027;28;20308;-89
2021/08/27 11:03:55;;;;;;;2.72;2.33;;;;;;;16.42;80.70;95468.19;5078099;28;20208;-88
2021/08/27 11:07:10;;;;;;;;;;;;;;;;;;;;;
2021/08/27 11:09:40;;;;;;;3.88;2.17;;;;;;;16.26;79.01;95468.75;5060709;28;20220;-89
2021/08/27 11:12:12;;;;;;;3.30;2.00;;;;;;;16.31;78.61;95471.50;5069284;28;20284;-88
2021/08/27 11:14:43;;;;;;;2.15;2.00;;;;;;;16.31;78.12;95468.91;5080933;28;20200;-89
2021/08/27 11:17:13;;;;;;;3.53;2.13;;;;;;;16.61;76.50;95471.59;5079249;28;20222;-88
2021/08/27 11:19:49;;;;;;;2.15;2.03;;;;;;;17.08;74.24;95464.09;5060982;28;20252;-88
2021/08/27 11:22:30;;;;;;;3.42;2.90;;;;;;;17.35;73.73;95464.50;5062054;28;20223;-88
2021/08/27 11:25:22;;;;;;;1.90;1.70;;;;;;;17.55;66.37;95467.63;5069401;28;20196;-88
2021/08/27 11:31:47;;;;;;;6.18;2.20;;;;;;;17.80;66.10;95452.66;5103131;27;20554;-87
2021/08/27 11:34:52;;;;;;;;;;;;;;;;;;;;;
2021/08/27 11:44:35;;;;;;;7.68;3.08;;;;;;;17.28;67.44;95441.19;4999962;28;20786;-89
2021/08/27 11:50:54;;;;;;;2.58;2.05;;;;;;;18.03;65.76;95441.47;5096079;28;20220;-87
2021/08/27 11:53:48;;;;;;;2.33;1.95;;;;;;;18.22;65.45;95445.56;5093051;28;20198;-88
2021/08/27 11:56:34;;;;;;;2.42;1.98;;;;;;;18.51;67.79;95437.81;5104749;28;20290;-88
2021/08/27 11:59:11;;;;;;;3.17;2.20;;;;;;;18.68;64.04;95440.53;5103739;28;20886;-88
2021/08/27 12:01:49;;;;;;;3.53;2.45;;;;;;;18.57;62.28;95442.91;5095472;28;20241;-87
2021/08/27 12:08:00;;;;;;;3.05;2.20;;;;;;;18.15;63.14;95450.09;4984343;28;20207;-89
2021/08/27 12:10:37;;;;;;;2.90;2.13;;;;;;;17.94;63.03;95456.63;5028234;28;20217;-89
2021/08/27 12:16:28;;;;;;;2.17;1.98;;;;;;;18.28;63.41;95454.25;5082423;28;20199;-88
2021/08/27 12:19:13;;;;;;;2.95;2.50;;;;;;;18.18;63.74;95454.06;5084625;28;20220;-90
2021/08/27 12:22:17;;;;;;;2.55;2.35;;;;;;;18.11;63.75;95446.34;5086224;28;20670;-89
2021/08/27 12:25:09;;;;;;;2.35;2.15;;;;;;;18.50;63.52;95452.66;5104051;28;20214;-89
2021/08/27 12:27:56;;;;;;;3.53;2.25;;;;;;;18.63;63.05;95449.06;5094252;28;20208;-90
2021/08/27 12:30:33;;;;;;;2.30;2.10;;;;;;;18.79;63.42;95445.72;5083106;28;20315;-89
2021/08/27 12:33:11;;;;;;;2.30;2.08;;;;;;;18.92;62.85;95442.84;5101823;28;20203;-89
2021/08/27 12:38:49;;;;;;;3.55;2.45;;;;;;;19.02;60.81;95438.88;5103012;28;20214;-89
2021/08/27 12:44:35;;;;;;;2.13;1.92;;;;;;;19.19;60.87;95435.28;5068271;28;20599;-90
2021/08/27 12:47:10;;;;;;;3.17;2.13;;;;;;;19.14;60.17;95442.22;5087917;28;20250;-89
2021/08/27 12:50:36;;;;;;;2.38;2.05;;;;;;;19.07;60.26;95418.84;5080969;28;20223;-90
2021/08/27 12:53:20;;;;;;;3.70;1.98;;;;;;;19.24;60.71;95427.50;5072406;28;20767;-86
2021/08/27 12:56:26;;;;;;;2.45;2.25;;;;;;;19.28;59.69;95430.47;5089532;28;20838;-87
2021/08/27 12:58:55;;;;;;;2.75;2.10;;;;;;;19.07;61.09;95423.28;5089662;28;20603;-88
2021/08/27 13:01:38;;;;;;;2.85;2.35;;;;;;;18.67;61.80;95431.91;5087808;28;20196;-89
2021/08/27 13:07:19;;;;;;;2.40;2.20;;;;;;;18.05;64.25;95452.47;5082562;28;20200;-90
2021/08/27 13:14:02;;;;;;;2.50;2.30;;;;;;;17.86;64.66;95474.44;5027228;28;20591;-90
2021/08/27 13:17:19;;;;;;;;;;;;;;;;;;;;;
2021/08/27 13:22:57;;;;;;;2.63;1.85;;;;;;;17.98;61.96;95462.19;5088173;28;20742;-89